Time;durP1;ratioP1;P1;durP2;ratioP2;P2;SDS_P1;SDS_P2;PMS_P1;PMS_P2;Temp;Humidity;BMP_temperature;BMP_pressure;BME280_temperature;BME280_humidity;BME280_pressure;Samples;Min_cycle;Max_cycle;Signal;HPM_P1;HPM_P2
2022/06/22 00:00:45;;;;;;;11.93;5.47;;;;;12.40;100824.00;;;;10390726;28;20229;-76
2022/06/22 00:05:52;;;;;;;11.50;5.13;;;;;12.30;100815.00;;;;10354783;28;20199;-76
2022/06/22 00:10:59;;;;;;;8.37;4.83;;;;;12.20;100804.00;;;;10378889;28;20230;-77
2022/06/22 00:16:14;;;;;;;10.13;5.40;;;;;12.00;100803.00;;;;10326301;28;20262;-77
2022/06/22 00:21:25;;;;;;;10.30;5.53;;;;;11.90;100814.00;;;;10375153;28;20186;-77
2022/06/22 00:26:34;;;;;;;9.20;5.23;;;;;11.80;100812.00;;;;10365760;28;20222;-77
2022/06/22 00:31:39;;;;;;;9.17;5.70;;;;;11.80;100794.00;;;;10342128;28;20199;-77
2022/06/22 00:37:00;;;;;;;7.20;5.33;;;;;11.80;100779.00;;;;10374951;28;20690;-77
2022/06/22 00:42:14;;;;;;;12.03;5.43;;;;;11.80;100770.00;;;;10325480;28;20302;-77
2022/06/22 00:47:19;;;;;;;11.50;5.53;;;;;11.70;100768.00;;;;10341461;28;20267;-77
2022/06/22 00:52:32;;;;;;;10.93;5.37;;;;;11.60;100763.00;;;;10360198;28;20198;-77
2022/06/22 00:57:40;;;;;;;5.60;4.63;;;;;11.50;100770.00;;;;10382322;28;20214;-77
2022/06/22 01:02:55;;;;;;;7.40;5.27;;;;;11.30;100769.00;;;;10414152;28;20591;-77
2022/06/22 01:08:15;;;;;;;9.07;5.17;;;;;11.30;100789.00;;;;10386457;28;20204;-77
2022/06/22 01:13:34;;;;;;;9.10;5.03;;;;;11.20;100801.00;;;;10347325;28;20207;-77
2022/06/22 01:18:43;;;;;;;9.53;5.97;;;;;11.10;100803.00;;;;10379342;28;20289;-77
2022/06/22 01:23:54;;;;;;;11.83;6.03;;;;;11.10;100797.00;;;;10380617;28;20245;-77
2022/06/22 01:29:05;;;;;;;6.00;5.27;;;;;11.10;100791.00;;;;10380490;28;20283;-77
2022/06/22 01:34:15;;;;;;;10.93;6.00;;;;;11.10;100802.00;;;;10353007;28;20243;-77
2022/06/22 01:39:17;;;;;;;9.30;6.00;;;;;11.00;100812.00;;;;10329017;28;20195;-77
2022/06/22 01:44:28;;;;;;;8.27;5.40;;;;;10.90;100816.00;;;;10356241;28;20206;-77
2022/06/22 01:49:41;;;;;;;6.77;5.63;;;;;10.90;100805.00;;;;10359772;28;20203;-77
2022/06/22 01:54:55;;;;;;;9.27;6.00;;;;;10.80;100800.00;;;;10355953;28;20613;-77
2022/06/22 02:00:06;;;;;;;7.23;5.90;;;;;10.70;100802.00;;;;10363451;28;20774;-77
2022/06/22 02:05:22;;;;;;;6.63;5.93;;;;;10.60;100802.00;;;;10395452;28;20218;-77
2022/06/22 02:10:35;;;;;;;13.87;6.70;;;;;10.60;100797.00;;;;10395107;28;20195;-77
2022/06/22 02:15:40;;;;;;;8.80;5.90;;;;;10.50;100787.00;;;;10395385;28;20617;-77
2022/06/22 02:20:42;;;;;;;11.60;6.23;;;;;10.50;100791.00;;;;10360550;28;20606;-77
2022/06/22 02:26:11;;;;;;;11.57;6.17;;;;;10.40;100782.00;;;;10378273;28;20253;-77
2022/06/22 02:31:15;;;;;;;9.27;6.53;;;;;10.40;100770.00;;;;10369448;28;20198;-77
2022/06/22 02:36:18;;;;;;;12.80;6.57;;;;;10.40;100752.00;;;;10364354;28;20211;-77
2022/06/22 02:46:45;;;;;;;9.57;6.80;;;;;10.30;100733.00;;;;10384961;28;20214;-77
2022/06/22 02:51:49;;;;;;;9.17;6.77;;;;;10.30;100741.00;;;;10384261;28;20195;-77
2022/06/22 02:57:00;;;;;;;10.07;6.83;;;;;10.20;100740.00;;;;10384388;28;20306;-77
2022/06/22 03:02:03;;;;;;;11.07;7.17;;;;;10.10;100745.00;;;;10388846;28;20222;-77
2022/06/22 03:07:06;;;;;;;11.60;7.33;;;;;10.10;100753.00;;;;10411076;28;20183;-77
2022/06/22 03:12:12;;;;;;;11.63;8.20;;;;;10.10;100756.00;;;;10367434;28;20191;-77
2022/06/22 03:17:18;;;;;;;11.40;9.20;;;;;10.20;100777.00;;;;10400328;28;20273;-76
2022/06/22 03:22:43;;;;;;;12.53;8.30;;;;;10.30;100775.00;;;;10400111;28;20187;-77
2022/06/22 03:28:12;;;;;;;13.97;8.03;;;;;10.30;100769.00;;;;10384146;28;20729;-77
2022/06/22 03:33:24;;;;;;;12.93;9.33;;;;;10.30;100772.00;;;;10375694;28;20261;-77
2022/06/22 03:38:33;;;;;;;13.97;7.73;;;;;10.40;100766.00;;;;10382279;28;20202;-77
2022/06/22 03:43:44;;;;;;;19.00;8.60;;;;;10.40;100760.00;;;;10382851;28;20187;-77
2022/06/22 03:49:19;;;;;;;11.63;7.73;;;;;10.40;100760.00;;;;10366026;28;20249;-77
2022/06/22 03:54:55;;;;;;;9.47;8.17;;;;;10.40;100745.00;;;;10350051;28;20273;-77
2022/06/22 03:59:58;;;;;;;10.80;7.43;;;;;10.50;100736.00;;;;10368552;28;20273;-77
2022/06/22 04:05:01;;;;;;;9.77;7.33;;;;;10.50;100741.00;;;;10364501;28;20205;-77
2022/06/22 04:10:07;;;;;;;13.90;7.80;;;;;10.50;100745.00;;;;10374738;28;20198;-77
2022/06/22 04:15:30;;;;;;;13.93;8.17;;;;;10.70;100745.00;;;;10399539;28;20233;-77
2022/06/22 04:20:50;;;;;;;9.17;7.63;;;;;10.90;100753.00;;;;10397327;28;20187;-77
2022/06/22 04:25:57;;;;;;;10.70;7.13;;;;;11.00;100747.00;;;;10396832;28;20700;-77
2022/06/22 04:31:00;;;;;;;9.17;7.53;;;;;11.30;100746.00;;;;10364803;28;20634;-77
2022/06/22 04:36:14;;;;;;;12.23;8.10;;;;;11.60;100734.00;;;;10371456;28;20211;-77
2022/06/22 04:41:29;;;;;;;12.43;8.40;;;;;11.90;100739.00;;;;10391538;28;20187;-77
2022/06/22 04:46:34;;;;;;;17.37;9.30;;;;;12.00;100721.00;;;;10358281;28;20191;-77
2022/06/22 04:51:38;;;;;;;12.93;9.33;;;;;12.00;100725.00;;;;10374091;28;20199;-76
2022/06/22 04:56:44;;;;;;;12.77;9.53;;;;;12.20;100747.00;;;;10369304;28;20277;-77
2022/06/22 05:01:50;;;;;;;12.30;10.63;;;;;12.70;100756.00;;;;10388043;28;20187;-77
2022/06/22 05:07:23;;;;;;;16.27;12.70;;;;;13.30;100751.00;;;;10370005;28;20262;-77
2022/06/22 05:12:27;;;;;;;15.20;11.07;;;;;13.70;100775.00;;;;10359658;28;20192;-77
2022/06/22 05:17:36;;;;;;;14.93;12.37;;;;;14.00;100783.00;;;;10378303;28;20297;-77
2022/06/22 05:22:38;;;;;;;12.97;11.07;;;;;14.10;100784.00;;;;10375889;28;20631;-78
2022/06/22 05:28:02;;;;;;;14.47;10.83;;;;;14.70;100786.00;;;;10397417;28;20183;-77
2022/06/22 05:33:11;;;;;;;16.50;11.50;;;;;15.60;100788.00;;;;10390709;28;20187;-77
2022/06/22 05:38:15;;;;;;;13.17;11.30;;;;;16.30;100805.00;;;;10364650;28;20245;-77
2022/06/22 05:43:18;;;;;;;12.37;10.03;;;;;17.20;100797.00;;;;10343494;28;20209;-78
2022/06/22 05:48:23;;;;;;;14.13;11.20;;;;;17.70;100791.00;;;;10396991;28;20199;-78
2022/06/22 05:53:39;;;;;;;16.73;11.10;;;;;17.90;100793.00;;;;10379792;28;20208;-77
2022/06/22 05:59:07;;;;;;;15.95;9.75;;;;;18.30;100797.00;;;;10375351;28;20214;-78
2022/06/22 06:04:34;;;;;;;12.95;10.27;;;;;19.10;100819.00;;;;10386367;28;20187;-79
2022/06/22 06:09:36;;;;;;;11.02;9.80;;;;;19.80;100820.00;;;;10390729;28;20191;-78
2022/06/22 06:14:42;;;;;;;13.00;9.80;;;;;20.40;100813.00;;;;10384403;28;20286;-78
2022/06/22 06:19:50;;;;;;;13.68;9.48;;;;;20.50;100802.00;;;;10361165;28;20196;-79
2022/06/22 06:30:27;;;;;;;11.75;9.82;;;;;20.00;100788.00;;;;10408495;28;20191;-78
2022/06/22 06:35:54;;;;;;;12.27;9.73;;;;;20.30;100780.00;;;;10417581;28;20210;-78
2022/06/22 06:41:01;;;;;;;9.55;8.27;;;;;21.50;100783.00;;;;10401844;28;20204;-78
2022/06/22 06:46:11;;;;;;;9.55;8.27;;;;;22.30;100785.00;;;;10359739;28;20191;-78
2022/06/22 06:51:17;;;;;;;12.52;9.18;;;;;22.30;100777.00;;;;10344378;28;20261;-78
2022/06/22 06:56:32;;;;;;;10.18;8.32;;;;;22.20;100776.00;;;;10388857;28;20700;-78
2022/06/22 07:01:39;;;;;;;12.25;8.68;;;;;22.90;100774.00;;;;10333969;28;20198;-78
2022/06/22 07:06:41;;;;;;;12.00;7.60;;;;;23.80;100765.00;;;;10368518;28;20183;-78
2022/06/22 07:11:51;;;;;;;9.45;8.10;;;;;24.90;100765.00;;;;10394989;28;20237;-78
2022/06/22 07:17:02;;;;;;;7.80;7.03;;;;;25.30;100769.00;;;;10381913;28;20250;-77
2022/06/22 07:22:23;;;;;;;20.15;7.90;;;;;24.80;100759.00;;;;10382755;28;20261;-77
2022/06/22 07:27:55;;;;;;;8.88;7.75;;;;;24.40;100766.00;;;;10398982;28;20285;-78
2022/06/22 07:33:27;;;;;;;11.65;7.35;;;;;25.20;100758.00;;;;10365603;28;20191;-77
2022/06/22 07:38:47;;;;;;;11.65;6.82;;;;;25.30;100762.00;;;;10381338;28;20270;-77
2022/06/22 07:43:52;;;;;;;10.52;7.07;;;;;24.90;100764.00;;;;10384161;28;20193;-77
2022/06/22 07:49:01;;;;;;;11.43;7.43;;;;;25.20;100782.00;;;;10357181;28;20638;-78
2022/06/22 07:54:11;;;;;;;11.40;6.60;;;;;25.70;100785.00;;;;10358160;28;20212;-77
2022/06/22 07:59:18;;;;;;;8.88;6.78;;;;;26.30;100787.00;;;;10360919;28;20218;-77
2022/06/22 08:04:35;;;;;;;8.48;6.50;;;;;26.60;100783.00;;;;10376376;28;20194;-78
2022/06/22 08:09:46;;;;;;;10.95;6.07;;;;;27.20;100775.00;;;;10381542;28;20179;-78
2022/06/22 08:14:53;;;;;;;11.65;7.15;;;;;27.70;100769.00;;;;10379816;28;20219;-78
2022/06/22 08:19:55;;;;;;;10.60;6.03;;;;;28.00;100765.00;;;;10348641;28;20649;-78
2022/06/22 08:24:58;;;;;;;9.23;6.50;;;;;28.00;100767.00;;;;10413531;28;20229;-77
2022/06/22 08:30:00;;;;;;;7.05;4.93;;;;;28.20;100764.00;;;;10395729;28;20211;-77
2022/06/22 08:35:08;;;;;;;8.75;5.97;;;;;28.40;100769.00;;;;10364221;28;20207;-78
2022/06/22 08:40:32;;;;;;;9.15;5.75;;;;;28.60;100767.00;;;;10397362;28;20606;-77
2022/06/22 08:45:43;;;;;;;6.80;5.50;;;;;29.10;100771.00;;;;10370602;28;20202;-77
2022/06/22 08:50:57;;;;;;;9.38;4.82;;;;;29.40;100770.00;;;;10422063;28;20189;-78
2022/06/22 08:56:11;;;;;;;9.70;4.70;;;;;29.50;100772.00;;;;10412682;28;20609;-77
2022/06/22 09:01:30;;;;;;;7.32;5.18;;;;;29.40;100774.00;;;;10377649;28;20202;-77
2022/06/22 09:06:50;;;;;;;8.80;5.70;;;;;30.10;100770.00;;;;10413668;28;20186;-77
2022/06/22 09:11:55;;;;;;;7.35;4.30;;;;;30.70;100766.00;;;;10367877;28;20191;-77
2022/06/22 09:17:28;;;;;;;8.43;4.75;;;;;30.80;100762.00;;;;10366909;28;20306;-77
2022/06/22 09:22:56;;;;;;;9.70;4.78;;;;;30.50;100753.00;;;;10396200;28;20179;-77
2022/06/22 09:28:09;;;;;;;9.90;4.10;;;;;30.20;100754.00;;;;10412389;28;20553;-78
2022/06/22 09:33:10;;;;;;;9.85;3.97;;;;;30.70;100746.00;;;;10373783;28;20252;-77
2022/06/22 09:38:31;;;;;;;6.75;4.28;;;;;31.00;100751.00;;;;10390471;28;20219;-78
2022/06/22 09:44:04;;;;;;;6.60;4.10;;;;;31.10;100757.00;;;;10410004;28;20589;-77
2022/06/22 09:49:28;;;;;;;7.63;4.07;;;;;30.60;100744.00;;;;10396700;28;20191;-77
2022/06/22 10:01:07;;;;;;;9.43;3.80;;;;;29.60;100754.00;;;;10191775;29;20226;-78
2022/06/22 10:06:31;;;;;;;8.00;3.30;;;;;30.80;100745.00;;;;10324344;28;20718;-77
2022/06/22 10:11:51;;;;;;;7.47;3.67;;;;;31.70;100747.00;;;;10362363;28;20226;-76
2022/06/22 10:17:33;;;;;;;5.95;3.38;;;;;32.20;100736.00;;;;10336173;28;20229;-77
2022/06/22 10:23:07;;;;;;;7.93;3.72;;;;;32.40;100734.00;;;;10374025;28;20606;-77
2022/06/22 10:28:12;;;;;;;6.78;3.88;;;;;32.20;100748.00;;;;10386738;28;20199;-77
2022/06/22 10:33:20;;;;;;;7.07;3.95;;;;;32.10;100728.00;;;;10418993;28;20207;-77
2022/06/22 10:39:01;;;;;;;8.82;3.60;;;;;32.40;100731.00;;;;10389685;28;20211;-77
2022/06/22 10:50:36;;;;;;;4.80;4.00;;;;;32.90;100727.00;;;;10368173;28;20262;-77
2022/06/22 10:56:18;;;;;;;4.70;2.92;;;;;33.40;100721.00;;;;10213742;29;20209;-77
2022/06/22 11:01:50;;;;;;;10.40;3.60;;;;;33.50;100728.00;;;;10351392;28;20238;-76
2022/06/22 11:07:03;;;;;;;6.28;3.55;;;;;33.50;100728.00;;;;10401131;28;20187;-77
2022/06/22 11:12:05;;;;;;;5.57;3.83;;;;;33.50;100723.00;;;;10400712;28;20199;-78
2022/06/22 11:17:34;;;;;;;8.02;3.30;;;;;33.60;100732.00;;;;10384766;28;20238;-77
2022/06/22 11:22:47;;;;;;;5.30;3.13;;;;;34.00;100722.00;;;;10384030;28;20195;-77
2022/06/22 11:33:56;;;;;;;5.63;2.85;;;;;33.90;100722.00;;;;10418032;28;20255;-78
2022/06/22 11:39:25;;;;;;;7.25;3.38;;;;;34.10;100729.00;;;;10397069;28;20183;-77
2022/06/22 11:45:50;;;;;;;7.05;2.97;;;;;33.80;100723.00;;;;10341956;28;20280;-77
2022/06/22 11:50:13;;;;;;;5.70;2.20;;;;;33.60;100723.00;;;;10358602;28;20191;-78
2022/06/22 11:55:24;;;;;;;6.25;2.53;;;;;34.20;100722.00;;;;10358515;28;20267;-77
2022/06/22 12:00:40;;;;;;;5.28;2.00;;;;;34.00;100718.00;;;;10354962;28;20597;-77
2022/06/22 12:05:55;;;;;;;8.13;2.35;;;;;34.40;100699.00;;;;10382424;28;20230;-78
2022/06/22 12:11:26;;;;;;;4.32;2.42;;;;;34.50;100702.00;;;;10398439;28;20201;-77
2022/06/22 12:17:10;;;;;;;6.13;2.20;;;;;34.10;100698.00;;;;10355906;28;20305;-78
2022/06/22 12:22:51;;;;;;;4.63;2.13;;;;;34.30;100689.00;;;;10365783;28;20587;-78
2022/06/22 12:28:11;;;;;;;5.45;2.33;;;;;34.20;100683.00;;;;10402430;28;20597;-78
2022/06/22 12:33:22;;;;;;;5.65;2.13;;;;;34.20;100686.00;;;;10375155;28;20191;-77
2022/06/22 12:38:40;;;;;;;4.03;1.55;;;;;34.00;100662.00;;;;10415351;28;20619;-78
2022/06/22 12:44:32;;;;;;;6.90;2.10;;;;;34.00;100662.00;;;;10397217;28;20692;-78
2022/06/22 12:49:54;;;;;;;3.42;1.88;;;;;34.50;100658.00;;;;10396494;28;20191;-77
2022/06/22 12:55:11;;;;;;;6.63;2.42;;;;;34.10;100657.00;;;;10379696;28;20276;-78
2022/06/22 13:00:16;;;;;;;6.65;2.10;;;;;34.10;100655.00;;;;10379506;28;20693;-77
2022/06/22 13:05:23;;;;;;;2.97;1.42;;;;;34.20;100646.00;;;;10396766;28;20661;-78
2022/06/22 13:10:35;;;;;;;4.43;1.70;;;;;34.10;100634.00;;;;10396564;28;20218;-77
2022/06/22 13:15:44;;;;;;;4.22;1.58;;;;;34.00;100635.00;;;;10351098;28;20202;-77
2022/06/22 13:20:54;;;;;;;3.95;1.60;;;;;34.20;100631.00;;;;10395914;28;20771;-77
2022/06/22 13:26:28;;;;;;;5.63;1.70;;;;;34.20;100639.00;;;;10396593;28;20203;-78
2022/06/22 13:31:37;;;;;;;6.45;1.90;;;;;34.10;100628.00;;;;10418096;28;20591;-78
2022/06/22 13:37:05;;;;;;;3.03;1.30;;;;;34.00;100624.00;;;;10412062;28;20211;-78
2022/06/22 13:42:55;;;;;;;4.80;1.45;;;;;33.90;100628.00;;;;10396448;28;20645;-77
2022/06/22 13:48:06;;;;;;;4.47;1.80;;;;;34.10;100621.00;;;;10394868;28;20191;-77
2022/06/22 13:53:26;;;;;;;2.53;1.45;;;;;34.20;100605.00;;;;10396329;28;20198;-78
2022/06/22 13:58:45;;;;;;;5.15;1.90;;;;;34.90;100602.00;;;;10395341;28;20215;-77
2022/06/22 14:03:50;;;;;;;7.20;1.60;;;;;35.60;100598.00;;;;10375210;28;20700;-78
2022/06/22 14:09:00;;;;;;;6.47;1.75;;;;;36.00;100597.00;;;;10430141;28;20294;-78
2022/06/22 14:14:24;;;;;;;7.82;1.90;;;;;36.50;100606.00;;;;10419902;28;20205;-77
2022/06/22 14:19:57;;;;;;;1.80;1.25;;;;;38.60;100595.00;;;;10408840;28;20203;-78
2022/06/22 14:25:01;;;;;;;3.80;1.48;;;;;39.40;100601.00;;;;10394061;28;20191;-77
2022/06/22 14:30:09;;;;;;;4.03;1.70;;;;;40.10;100598.00;;;;10413435;28;20188;-77
2022/06/22 14:35:51;;;;;;;3.80;1.95;;;;;40.50;100597.00;;;;10369556;28;20217;-78
2022/06/22 14:41:13;;;;;;;5.63;1.75;;;;;40.50;100595.00;;;;10401158;28;20610;-77
2022/06/22 14:46:27;;;;;;;4.30;1.30;;;;;40.60;100586.00;;;;10401912;28;20653;-77
2022/06/22 14:51:32;;;;;;;4.75;1.88;;;;;41.20;100583.00;;;;10385682;28;20531;-77
2022/06/22 14:56:52;;;;;;;4.38;1.90;;;;;39.80;100590.00;;;;10371951;28;20215;-77
2022/06/22 15:02:17;;;;;;;3.88;2.92;;;;;41.00;100567.00;;;;10355075;28;20226;-77
2022/06/22 15:07:29;;;;;;;3.45;1.65;;;;;41.90;100561.00;;;;10416834;28;20187;-77
2022/06/22 15:17:57;;;;;;;2.65;1.48;;;;;41.90;100551.00;;;;10352377;28;20229;-78
2022/06/22 15:23:16;;;;;;;4.55;1.50;;;;;42.40;100545.00;;;;10384468;28;20203;-78
2022/06/22 15:28:31;;;;;;;6.22;1.60;;;;;42.10;100550.00;;;;10400498;28;20222;-78
2022/06/22 15:33:36;;;;;;;3.70;1.70;;;;;41.90;100541.00;;;;10384743;28;20559;-77
2022/06/22 15:39:04;;;;;;;5.72;1.65;;;;;38.40;100544.00;;;;10351505;28;20221;-77
2022/06/22 15:44:23;;;;;;;3.63;1.70;;;;;34.20;100533.00;;;;10415797;28;20213;-77
2022/06/22 15:49:36;;;;;;;2.92;1.60;;;;;35.00;100519.00;;;;10393152;28;20202;-77
2022/06/22 15:55:01;;;;;;;2.42;1.40;;;;;32.60;100529.00;;;;10383526;28;20642;-77
2022/06/22 16:00:29;;;;;;;4.47;1.70;;;;;31.40;100517.00;;;;10379775;28;20222;-77
2022/06/22 16:05:42;;;;;;;4.70;1.42;;;;;30.80;100517.00;;;;10366680;28;20206;-78
2022/06/22 16:16:49;;;;;;;5.80;1.73;;;;;30.00;100515.00;;;;10432014;28;20198;-78
2022/06/22 16:22:09;;;;;;;4.68;1.65;;;;;29.70;100506.00;;;;10354658;28;20210;-77
2022/06/22 16:27:27;;;;;;;5.30;1.63;;;;;29.40;100498.00;;;;10398264;28;20266;-77
2022/06/22 16:32:53;;;;;;;9.35;1.50;;;;;29.20;100498.00;;;;10396806;28;20252;-79
2022/06/22 16:38:01;;;;;;;7.65;1.65;;;;;29.10;100499.00;;;;10395086;28;20222;-78
2022/06/22 16:43:29;;;;;;;2.30;1.42;;;;;29.00;100501.00;;;;10412481;28;20185;-78
2022/06/22 16:48:37;;;;;;;4.95;1.33;;;;;28.80;100491.00;;;;10412777;28;20195;-78
2022/06/22 16:53:49;;;;;;;6.75;1.58;;;;;28.70;100497.00;;;;10368414;28;20187;-77
2022/06/22 16:58:58;;;;;;;3.67;1.60;;;;;28.60;100488.00;;;;10370077;28;20286;-77
2022/06/22 17:04:06;;;;;;;4.53;1.70;;;;;28.50;100490.00;;;;10394544;28;20274;-77
2022/06/22 17:09:20;;;;;;;2.88;1.88;;;;;28.40;100490.00;;;;10380550;28;20187;-77
2022/06/22 17:14:29;;;;;;;5.72;1.67;;;;;28.30;100484.00;;;;10380228;28;20195;-77
2022/06/22 17:19:58;;;;;;;4.40;1.80;;;;;28.20;100500.00;;;;10380985;28;20221;-77
2022/06/22 17:25:39;;;;;;;5.28;1.15;;;;;28.10;100499.00;;;;10394519;28;20672;-77
2022/06/22 17:30:59;;;;;;;3.15;1.90;;;;;28.10;100504.00;;;;10364176;28;20547;-77
2022/06/22 17:36:31;;;;;;;3.03;1.58;;;;;27.90;100504.00;;;;10355685;28;20204;-77
2022/06/22 17:41:41;;;;;;;3.55;1.70;;;;;27.80;100513.00;;;;10356081;28;20200;-77
2022/06/22 17:46:51;;;;;;;5.68;1.67;;;;;27.60;100518.00;;;;10356439;28;20191;-78
2022/06/22 17:51:53;;;;;;;2.58;1.58;;;;;27.60;100518.00;;;;10355374;28;20653;-77
2022/06/22 17:57:05;;;;;;;4.68;1.70;;;;;27.50;100521.00;;;;10339044;28;20788;-77
2022/06/22 18:02:20;;;;;;;5.00;1.90;;;;;27.30;100533.00;;;;10367680;28;20286;-77
2022/06/22 18:07:32;;;;;;;2.60;1.92;;;;;27.20;100528.00;;;;10403725;28;20278;-78
2022/06/22 18:12:41;;;;;;;2.85;1.50;;;;;27.10;100526.00;;;;10386758;28;20295;-77
2022/06/22 18:17:57;;;;;;;5.88;1.98;;;;;26.90;100526.00;;;;10384046;28;20309;-77
2022/06/22 18:23:04;;;;;;;6.70;1.88;;;;;26.80;100523.00;;;;10403574;28;20671;-77
2022/06/22 18:28:09;;;;;;;3.05;1.58;;;;;26.70;100524.00;;;;10419542;28;20270;-77
2022/06/22 18:33:34;;;;;;;4.80;1.70;;;;;26.50;100528.00;;;;10403320;28;20658;-77
2022/06/22 18:44:55;;;;;;;4.40;1.70;;;;;26.20;100531.00;;;;10363533;28;20210;-77
2022/06/22 18:50:12;;;;;;;4.43;1.55;;;;;26.10;100530.00;;;;10378766;28;20249;-76
2022/06/22 18:55:30;;;;;;;4.53;1.55;;;;;25.90;100534.00;;;;10363262;28;20938;-77
2022/06/22 19:00:39;;;;;;;4.65;1.50;;;;;25.70;100538.00;;;;10376509;28;20237;-76
2022/06/22 19:05:42;;;;;;;3.42;1.95;;;;;25.60;100542.00;;;;10418365;28;20218;-76
2022/06/22 19:11:17;;;;;;;1.30;1.20;;;;;25.50;100542.00;;;;10401395;28;20214;-76
2022/06/22 19:16:57;;;;;;;10.75;2.22;;;;;25.70;100554.00;;;;10397089;28;20215;-76
2022/06/22 19:22:30;;;;;;;3.70;1.58;;;;;25.80;100551.00;;;;10342038;28;20199;-76
2022/06/22 19:27:47;;;;;;;3.17;1.60;;;;;25.70;100554.00;;;;10361731;28;20287;-77
2022/06/22 19:32:59;;;;;;;6.45;1.30;;;;;25.50;100559.00;;;;10386363;28;20200;-77
2022/06/22 19:38:08;;;;;;;3.53;1.65;;;;;25.20;100555.00;;;;10337559;28;20219;-76
2022/06/22 19:43:27;;;;;;;6.07;1.60;;;;;24.80;100556.00;;;;10343614;28;20191;-77
2022/06/22 19:48:56;;;;;;;1.95;1.25;;;;;24.60;100551.00;;;;10343502;28;20183;-76
2022/06/22 19:54:26;;;;;;;3.40;1.70;;;;;24.30;100547.00;;;;10360924;28;20202;-76
2022/06/22 19:59:31;;;;;;;2.75;1.50;;;;;24.10;100556.00;;;;10383169;28;20228;-76
2022/06/22 20:05:06;;;;;;;3.38;1.65;;;;;23.90;100562.00;;;;10399013;28;20213;-77
2022/06/22 20:10:18;;;;;;;5.53;1.60;;;;;23.80;100568.00;;;;10403184;28;20211;-76
2022/06/22 20:15:45;;;;;;;5.63;1.38;;;;;23.60;100577.00;;;;10382325;28;20199;-76
2022/06/22 20:20:58;;;;;;;8.45;1.30;;;;;23.50;100588.00;;;;10366077;28;20676;-76
2022/06/22 20:26:19;;;;;;;5.15;1.50;;;;;23.40;100596.00;;;;10382197;28;20183;-76
2022/06/22 20:31:28;;;;;;;3.30;1.40;;;;;23.30;100591.00;;;;10365639;28;20195;-76
2022/06/22 20:36:33;;;;;;;4.43;1.45;;;;;23.20;100588.00;;;;10393895;28;20535;-76
2022/06/22 20:42:14;;;;;;;6.85;1.70;;;;;23.20;100595.00;;;;10396740;28;20252;-76
2022/06/22 20:47:22;;;;;;;3.08;1.42;;;;;23.10;100603.00;;;;10325109;28;20649;-76
2022/06/22 20:52:25;;;;;;;5.18;1.42;;;;;23.10;100606.00;;;;10397184;28;20195;-77
2022/06/22 20:57:38;;;;;;;4.00;1.42;;;;;23.00;100605.00;;;;10396510;28;20755;-76
2022/06/22 21:02:51;;;;;;;4.10;1.40;;;;;23.00;100619.00;;;;10379922;28;20191;-76
2022/06/22 21:07:54;;;;;;;5.70;1.85;;;;;22.90;100612.00;;;;10409807;28;20190;-76
2022/06/22 21:13:15;;;;;;;4.28;2.15;;;;;22.80;100609.00;;;;10385602;28;20199;-76
2022/06/22 21:18:25;;;;;;;2.97;1.63;;;;;22.70;100625.00;;;;10396305;28;20214;-76
2022/06/22 21:23:33;;;;;;;4.22;1.92;;;;;22.70;100624.00;;;;10380044;28;20209;-76
2022/06/22 21:34:24;;;;;;;3.28;1.40;;;;;22.50;100635.00;;;;10380176;28;20256;-76
2022/06/22 21:39:32;;;;;;;2.30;1.65;;;;;22.40;100637.00;;;;10415194;28;20301;-76
2022/06/22 21:44:59;;;;;;;4.85;2.10;;;;;22.40;100649.00;;;;10388325;28;20175;-77
2022/06/22 21:50:13;;;;;;;2.28;1.40;;;;;22.30;100648.00;;;;10364127;28;20266;-76
2022/06/22 21:55:34;;;;;;;3.53;1.65;;;;;22.20;100637.00;;;;10393124;28;20203;-77
2022/06/22 22:00:44;;;;;;;3.90;1.58;;;;;22.10;100644.00;;;;10347272;28;20293;-76
2022/06/22 22:06:26;;;;;;;4.38;1.45;;;;;22.00;100652.00;;;;10386601;28;20194;-76
2022/06/22 22:11:47;;;;;;;2.72;2.05;;;;;21.90;100629.00;;;;10338819;28;20209;-76
2022/06/22 22:16:59;;;;;;;3.00;1.75;;;;;21.80;100625.00;;;;10404012;28;20601;-76
2022/06/22 22:22:01;;;;;;;4.40;1.58;;;;;21.70;100638.00;;;;10396953;28;20562;-76
2022/06/22 22:27:13;;;;;;;6.03;1.88;;;;;21.70;100638.00;;;;10362653;28;20257;-76
2022/06/22 22:32:15;;;;;;;4.13;1.75;;;;;21.60;100641.00;;;;10343335;28;20263;-76
2022/06/22 22:37:26;;;;;;;4.82;1.63;;;;;21.50;100641.00;;;;10376495;28;20215;-77
2022/06/22 22:42:29;;;;;;;2.60;1.77;;;;;21.40;100628.00;;;;10401723;28;20313;-76
2022/06/22 22:47:35;;;;;;;2.10;1.88;;;;;21.40;100637.00;;;;10386058;28;20754;-77
2022/06/22 22:52:47;;;;;;;3.88;1.75;;;;;21.30;100630.00;;;;10401035;28;20198;-77
2022/06/22 22:57:54;;;;;;;4.70;1.73;;;;;21.20;100629.00;;;;10401651;28;20228;-76
2022/06/22 23:03:10;;;;;;;6.30;2.00;;;;;21.10;100628.00;;;;10385559;28;20286;-76
2022/06/22 23:08:14;;;;;;;4.93;1.60;;;;;21.00;100623.00;;;;10402027;28;20179;-77
2022/06/22 23:13:20;;;;;;;3.50;1.70;;;;;20.90;100616.00;;;;10359862;28;20230;-76
2022/06/22 23:18:24;;;;;;;3.55;1.70;;;;;20.90;100618.00;;;;10343813;28;20219;-76
2022/06/22 23:23:27;;;;;;;3.50;1.95;;;;;20.80;100621.00;;;;10336886;28;20195;-77
2022/06/22 23:28:32;;;;;;;3.33;1.88;;;;;20.80;100610.00;;;;10391675;28;20620;-76
2022/06/22 23:33:43;;;;;;;4.50;1.90;;;;;20.70;100603.00;;;;10399941;28;20206;-76
2022/06/22 23:38:48;;;;;;;4.30;1.85;;;;;20.70;100590.00;;;;10400089;28;20681;-76
2022/06/22 23:43:56;;;;;;;5.32;1.95;;;;;20.60;100588.00;;;;10369476;28;20206;-76
2022/06/22 23:49:05;;;;;;;1.80;1.63;;;;;20.50;100593.00;;;;10326931;28;20650;-76
2022/06/22 23:54:13;;;;;;;4.28;1.98;;;;;20.40;100594.00;;;;10359352;28;20184;-75
2022/06/22 23:59:19;;;;;;;2.42;1.80;;;;;20.40;100577.00;;;;10390484;28;20253;-75
